sensor_id;sensor_type;location;lat;lon;timestamp;temperature;humidity
21627;DHT22;10975;47.872;12.972;2023-07-13T00:00:38;19.70;99.90
21627;DHT22;10975;47.872;12.972;2023-07-13T00:03:05;19.70;99.90
21627;DHT22;10975;47.872;12.972;2023-07-13T00:05:32;19.70;99.90
21627;DHT22;10975;47.872;12.972;2023-07-13T00:07:58;19.70;99.90
21627;DHT22;10975;47.872;12.972;2023-07-13T00:10:25;19.70;99.90
21627;DHT22;10975;47.872;12.972;2023-07-13T00:12:52;19.60;99.90
21627;DHT22;10975;47.872;12.972;2023-07-13T00:15:22;19.60;99.90
21627;DHT22;10975;47.872;12.972;2023-07-13T00:17:50;19.60;99.90
21627;DHT22;10975;47.872;12.972;2023-07-13T00:20:17;19.60;99.90
21627;DHT22;10975;47.872;12.972;2023-07-13T00:22:43;19.60;99.90
21627;DHT22;10975;47.872;12.972;2023-07-13T00:25:10;19.50;99.90
21627;DHT22;10975;47.872;12.972;2023-07-13T00:27:37;19.50;99.90
21627;DHT22;10975;47.872;12.972;2023-07-13T00:30:04;19.50;99.90
21627;DHT22;10975;47.872;12.972;2023-07-13T00:32:31;19.50;99.90
21627;DHT22;10975;47.872;12.972;2023-07-13T00:34:58;19.50;99.90
21627;DHT22;10975;47.872;12.972;2023-07-13T00:37:26;19.50;99.90
21627;DHT22;10975;47.872;12.972;2023-07-13T00:39:53;19.50;99.90
21627;DHT22;10975;47.872;12.972;2023-07-13T00:42:20;19.50;99.90
21627;DHT22;10975;47.872;12.972;2023-07-13T00:45:07;19.50;99.90
21627;DHT22;10975;47.872;12.972;2023-07-13T00:47:52;19.50;99.90
21627;DHT22;10975;47.872;12.972;2023-07-13T00:50:19;19.50;99.90
21627;DHT22;10975;47.872;12.972;2023-07-13T00:52:48;19.50;99.90
21627;DHT22;10975;47.872;12.972;2023-07-13T00:55:15;19.50;99.90
21627;DHT22;10975;47.872;12.972;2023-07-13T00:57:43;19.40;99.90
21627;DHT22;10975;47.872;12.972;2023-07-13T01:00:10;19.40;99.90
21627;DHT22;10975;47.872;12.972;2023-07-13T01:02:39;19.30;99.90
21627;DHT22;10975;47.872;12.972;2023-07-13T01:05:10;19.30;99.90
21627;DHT22;10975;47.872;12.972;2023-07-13T01:07:37;19.30;99.90
21627;DHT22;10975;47.872;12.972;2023-07-13T01:10:04;19.30;99.90
21627;DHT22;10975;47.872;12.972;2023-07-13T01:12:31;19.30;99.90
21627;DHT22;10975;47.872;12.972;2023-07-13T01:14:58;19.30;99.90
21627;DHT22;10975;47.872;12.972;2023-07-13T01:17:29;19.30;99.90
21627;DHT22;10975;47.872;12.972;2023-07-13T01:19:57;19.30;99.90
21627;DHT22;10975;47.872;12.972;2023-07-13T01:22:24;19.30;99.90
21627;DHT22;10975;47.872;12.972;2023-07-13T01:24:53;19.20;99.90
21627;DHT22;10975;47.872;12.972;2023-07-13T01:27:22;19.20;99.90
21627;DHT22;10975;47.872;12.972;2023-07-13T01:29:51;19.20;99.90
21627;DHT22;10975;47.872;12.972;2023-07-13T01:32:20;19.10;99.90
21627;DHT22;10975;47.872;12.972;2023-07-13T01:34:53;19.20;99.90
21627;DHT22;10975;47.872;12.972;2023-07-13T01:37:23;19.20;99.90
21627;DHT22;10975;47.872;12.972;2023-07-13T01:39:50;19.20;99.90
21627;DHT22;10975;47.872;12.972;2023-07-13T01:42:17;19.10;99.90
21627;DHT22;10975;47.872;12.972;2023-07-13T01:44:44;19.10;99.90
21627;DHT22;10975;47.872;12.972;2023-07-13T01:47:10;19.10;99.90
21627;DHT22;10975;47.872;12.972;2023-07-13T01:49:38;19.10;99.90
21627;DHT22;10975;47.872;12.972;2023-07-13T01:52:05;19.10;99.90
21627;DHT22;10975;47.872;12.972;2023-07-13T01:54:32;19.10;99.90
21627;DHT22;10975;47.872;12.972;2023-07-13T01:57:00;19.10;99.90
21627;DHT22;10975;47.872;12.972;2023-07-13T01:59:27;19.10;99.90
21627;DHT22;10975;47.872;12.972;2023-07-13T02:01:54;19.00;99.90
21627;DHT22;10975;47.872;12.972;2023-07-13T02:04:21;19.10;99.90
21627;DHT22;10975;47.872;12.972;2023-07-13T02:06:47;19.10;99.90
21627;DHT22;10975;47.872;12.972;2023-07-13T02:09:14;19.10;99.90
21627;DHT22;10975;47.872;12.972;2023-07-13T02:11:41;19.10;99.90
21627;DHT22;10975;47.872;12.972;2023-07-13T02:14:07;19.10;99.90
21627;DHT22;10975;47.872;12.972;2023-07-13T02:16:34;19.10;99.90
21627;DHT22;10975;47.872;12.972;2023-07-13T02:19:01;19.10;99.90
21627;DHT22;10975;47.872;12.972;2023-07-13T02:21:28;19.00;99.90
21627;DHT22;10975;47.872;12.972;2023-07-13T02:23:55;18.90;99.90
21627;DHT22;10975;47.872;12.972;2023-07-13T02:26:24;18.90;99.90
21627;DHT22;10975;47.872;12.972;2023-07-13T02:28:51;18.90;99.90
21627;DHT22;10975;47.872;12.972;2023-07-13T02:31:18;18.80;99.90
21627;DHT22;10975;47.872;12.972;2023-07-13T02:33:45;18.80;99.90
21627;DHT22;10975;47.872;12.972;2023-07-13T02:36:12;18.80;99.90
21627;DHT22;10975;47.872;12.972;2023-07-13T02:38:40;18.80;99.90
21627;DHT22;10975;47.872;12.972;2023-07-13T02:41:07;18.80;99.90
21627;DHT22;10975;47.872;12.972;2023-07-13T02:43:35;18.70;99.90
21627;DHT22;10975;47.872;12.972;2023-07-13T02:46:02;18.70;99.90
21627;DHT22;10975;47.872;12.972;2023-07-13T02:48:34;18.70;99.90
21627;DHT22;10975;47.872;12.972;2023-07-13T02:51:01;18.80;99.90
21627;DHT22;10975;47.872;12.972;2023-07-13T02:53:28;18.80;99.90
21627;DHT22;10975;47.872;12.972;2023-07-13T02:55:54;18.80;99.90
21627;DHT22;10975;47.872;12.972;2023-07-13T02:58:21;18.80;99.90
21627;DHT22;10975;47.872;12.972;2023-07-13T03:00:48;18.90;99.90
21627;DHT22;10975;47.872;12.972;2023-07-13T03:03:17;18.90;99.90
21627;DHT22;10975;47.872;12.972;2023-07-13T03:05:44;18.90;99.90
21627;DHT22;10975;47.872;12.972;2023-07-13T03:08:11;18.80;99.90
21627;DHT22;10975;47.872;12.972;2023-07-13T03:10:38;18.80;99.90
21627;DHT22;10975;47.872;12.972;2023-07-13T03:13:06;18.80;99.90
21627;DHT22;10975;47.872;12.972;2023-07-13T03:15:33;18.80;99.90
21627;DHT22;10975;47.872;12.972;2023-07-13T03:17:59;18.80;99.90
21627;DHT22;10975;47.872;12.972;2023-07-13T03:20:26;18.80;99.90
21627;DHT22;10975;47.872;12.972;2023-07-13T03:22:53;18.90;99.90
21627;DHT22;10975;47.872;12.972;2023-07-13T03:25:19;18.80;99.90
21627;DHT22;10975;47.872;12.972;2023-07-13T03:27:46;18.80;99.90
21627;DHT22;10975;47.872;12.972;2023-07-13T03:30:13;18.80;99.90
21627;DHT22;10975;47.872;12.972;2023-07-13T03:32:39;18.70;99.90
21627;DHT22;10975;47.872;12.972;2023-07-13T03:35:08;18.80;99.90
21627;DHT22;10975;47.872;12.972;2023-07-13T03:37:35;18.80;99.90
21627;DHT22;10975;47.872;12.972;2023-07-13T03:40:09;18.70;99.90
21627;DHT22;10975;47.872;12.972;2023-07-13T03:42:36;18.70;99.90
21627;DHT22;10975;47.872;12.972;2023-07-13T03:45:03;18.80;99.90
21627;DHT22;10975;47.872;12.972;2023-07-13T03:47:30;18.80;99.90
21627;DHT22;10975;47.872;12.972;2023-07-13T03:49:56;18.80;99.90
21627;DHT22;10975;47.872;12.972;2023-07-13T03:52:23;18.80;99.90
21627;DHT22;10975;47.872;12.972;2023-07-13T03:54:50;18.80;99.90
21627;DHT22;10975;47.872;12.972;2023-07-13T03:57:17;18.90;99.90
21627;DHT22;10975;47.872;12.972;2023-07-13T03:59:45;18.90;99.90
21627;DHT22;10975;47.872;12.972;2023-07-13T04:02:11;18.90;99.90
21627;DHT22;10975;47.872;12.972;2023-07-13T04:04:38;18.90;99.90
21627;DHT22;10975;47.872;12.972;2023-07-13T04:07:07;18.90;99.90
21627;DHT22;10975;47.872;12.972;2023-07-13T04:09:35;18.90;99.90
21627;DHT22;10975;47.872;12.972;2023-07-13T04:12:01;18.90;99.90
21627;DHT22;10975;47.872;12.972;2023-07-13T04:14:28;18.90;99.90
21627;DHT22;10975;47.872;12.972;2023-07-13T04:16:55;18.90;99.90
21627;DHT22;10975;47.872;12.972;2023-07-13T04:19:22;18.90;99.90
21627;DHT22;10975;47.872;12.972;2023-07-13T04:21:49;18.90;99.90
21627;DHT22;10975;47.872;12.972;2023-07-13T04:24:16;18.90;99.90
21627;DHT22;10975;47.872;12.972;2023-07-13T04:26:42;18.90;99.90
21627;DHT22;10975;47.872;12.972;2023-07-13T04:29:10;18.90;99.90
21627;DHT22;10975;47.872;12.972;2023-07-13T04:31:37;18.90;99.90
21627;DHT22;10975;47.872;12.972;2023-07-13T04:34:03;19.00;99.90
21627;DHT22;10975;47.872;12.972;2023-07-13T04:36:30;19.00;99.90
21627;DHT22;10975;47.872;12.972;2023-07-13T04:38:57;18.90;99.90
21627;DHT22;10975;47.872;12.972;2023-07-13T04:41:23;18.90;99.90
21627;DHT22;10975;47.872;12.972;2023-07-13T04:43:50;19.00;99.90
21627;DHT22;10975;47.872;12.972;2023-07-13T04:46:17;19.00;99.90
21627;DHT22;10975;47.872;12.972;2023-07-13T04:48:45;19.00;99.90
21627;DHT22;10975;47.872;12.972;2023-07-13T04:51:12;18.90;99.90
21627;DHT22;10975;47.872;12.972;2023-07-13T04:53:39;18.90;99.90
21627;DHT22;10975;47.872;12.972;2023-07-13T04:56:05;18.90;99.90
21627;DHT22;10975;47.872;12.972;2023-07-13T04:58:32;18.90;99.90
21627;DHT22;10975;47.872;12.972;2023-07-13T05:01:03;18.90;99.90
21627;DHT22;10975;47.872;12.972;2023-07-13T05:03:30;18.90;99.90
21627;DHT22;10975;47.872;12.972;2023-07-13T05:05:58;18.90;99.90
21627;DHT22;10975;47.872;12.972;2023-07-13T05:08:25;18.90;99.90
21627;DHT22;10975;47.872;12.972;2023-07-13T05:10:52;18.90;99.90
21627;DHT22;10975;47.872;12.972;2023-07-13T05:13:19;18.90;99.90
21627;DHT22;10975;47.872;12.972;2023-07-13T05:15:46;19.00;99.90
21627;DHT22;10975;47.872;12.972;2023-07-13T05:18:13;19.00;99.90
21627;DHT22;10975;47.872;12.972;2023-07-13T05:20:40;19.00;99.90
21627;DHT22;10975;47.872;12.972;2023-07-13T05:23:07;19.10;99.90
21627;DHT22;10975;47.872;12.972;2023-07-13T05:25:33;19.10;99.90
21627;DHT22;10975;47.872;12.972;2023-07-13T05:28:00;19.20;99.90
21627;DHT22;10975;47.872;12.972;2023-07-13T05:30:27;19.20;99.90
21627;DHT22;10975;47.872;12.972;2023-07-13T05:32:53;19.30;99.90
21627;DHT22;10975;47.872;12.972;2023-07-13T05:35:20;19.40;99.90
21627;DHT22;10975;47.872;12.972;2023-07-13T05:37:47;19.40;99.90
21627;DHT22;10975;47.872;12.972;2023-07-13T05:40:13;19.50;99.90
21627;DHT22;10975;47.872;12.972;2023-07-13T05:42:40;19.50;99.90
21627;DHT22;10975;47.872;12.972;2023-07-13T05:45:07;19.60;99.90
21627;DHT22;10975;47.872;12.972;2023-07-13T05:47:34;19.60;99.90
21627;DHT22;10975;47.872;12.972;2023-07-13T05:50:00;19.60;99.90
21627;DHT22;10975;47.872;12.972;2023-07-13T05:52:31;19.60;99.90
21627;DHT22;10975;47.872;12.972;2023-07-13T05:54:58;19.50;99.90
21627;DHT22;10975;47.872;12.972;2023-07-13T05:57:24;19.60;99.90
21627;DHT22;10975;47.872;12.972;2023-07-13T05:59:51;19.50;99.90
21627;DHT22;10975;47.872;12.972;2023-07-13T06:02:18;19.40;99.90
21627;DHT22;10975;47.872;12.972;2023-07-13T06:04:44;19.40;99.90
21627;DHT22;10975;47.872;12.972;2023-07-13T06:07:11;19.50;99.90
21627;DHT22;10975;47.872;12.972;2023-07-13T06:09:38;19.50;99.90
21627;DHT22;10975;47.872;12.972;2023-07-13T06:12:05;19.50;99.90
21627;DHT22;10975;47.872;12.972;2023-07-13T06:14:32;19.40;99.90
21627;DHT22;10975;47.872;12.972;2023-07-13T06:16:59;19.40;99.90
21627;DHT22;10975;47.872;12.972;2023-07-13T06:19:25;19.40;99.90
21627;DHT22;10975;47.872;12.972;2023-07-13T06:21:52;19.40;99.90
21627;DHT22;10975;47.872;12.972;2023-07-13T06:24:22;19.40;99.90
21627;DHT22;10975;47.872;12.972;2023-07-13T06:26:48;19.30;99.90
21627;DHT22;10975;47.872;12.972;2023-07-13T06:29:15;19.30;99.90
21627;DHT22;10975;47.872;12.972;2023-07-13T06:31:42;19.30;99.90
21627;DHT22;10975;47.872;12.972;2023-07-13T06:34:09;19.40;99.90
21627;DHT22;10975;47.872;12.972;2023-07-13T06:36:35;19.30;99.90
21627;DHT22;10975;47.872;12.972;2023-07-13T06:39:02;19.20;99.90
21627;DHT22;10975;47.872;12.972;2023-07-13T06:41:29;19.30;99.90
21627;DHT22;10975;47.872;12.972;2023-07-13T06:43:57;19.20;99.90
21627;DHT22;10975;47.872;12.972;2023-07-13T06:46:23;19.10;99.90
21627;DHT22;10975;47.872;12.972;2023-07-13T06:48:50;19.20;99.90
21627;DHT22;10975;47.872;12.972;2023-07-13T06:51:17;19.20;99.90
21627;DHT22;10975;47.872;12.972;2023-07-13T06:53:43;19.20;99.90
21627;DHT22;10975;47.872;12.972;2023-07-13T06:56:10;19.30;99.90
21627;DHT22;10975;47.872;12.972;2023-07-13T06:58:37;19.40;99.90
21627;DHT22;10975;47.872;12.972;2023-07-13T07:01:04;19.40;99.90
21627;DHT22;10975;47.872;12.972;2023-07-13T07:03:34;19.40;99.90
21627;DHT22;10975;47.872;12.972;2023-07-13T07:08:40;19.50;99.90
21627;DHT22;10975;47.872;12.972;2023-07-13T07:11:28;19.60;99.90
21627;DHT22;10975;47.872;12.972;2023-07-13T07:13:54;19.70;99.90
21627;DHT22;10975;47.872;12.972;2023-07-13T07:16:21;19.70;99.90
21627;DHT22;10975;47.872;12.972;2023-07-13T07:18:47;19.80;99.90
21627;DHT22;10975;47.872;12.972;2023-07-13T07:21:14;19.90;99.90
21627;DHT22;10975;47.872;12.972;2023-07-13T07:23:41;19.80;99.90
21627;DHT22;10975;47.872;12.972;2023-07-13T07:26:08;19.80;99.90
21627;DHT22;10975;47.872;12.972;2023-07-13T07:28:36;19.80;99.90
21627;DHT22;10975;47.872;12.972;2023-07-13T07:31:06;19.80;99.90
21627;DHT22;10975;47.872;12.972;2023-07-13T07:33:35;19.80;99.90
21627;DHT22;10975;47.872;12.972;2023-07-13T07:36:02;19.80;99.90
21627;DHT22;10975;47.872;12.972;2023-07-13T07:38:32;19.70;99.90
21627;DHT22;10975;47.872;12.972;2023-07-13T07:41:01;19.80;99.90
21627;DHT22;10975;47.872;12.972;2023-07-13T07:43:31;19.80;99.90
21627;DHT22;10975;47.872;12.972;2023-07-13T07:45:58;19.80;99.90
21627;DHT22;10975;47.872;12.972;2023-07-13T07:48:28;19.80;99.90
21627;DHT22;10975;47.872;12.972;2023-07-13T07:50:55;19.80;99.90
21627;DHT22;10975;47.872;12.972;2023-07-13T07:53:22;19.70;99.90
21627;DHT22;10975;47.872;12.972;2023-07-13T07:55:49;19.70;99.90
21627;DHT22;10975;47.872;12.972;2023-07-13T07:58:18;19.70;99.90
21627;DHT22;10975;47.872;12.972;2023-07-13T08:00:48;19.70;99.90
21627;DHT22;10975;47.872;12.972;2023-07-13T08:03:18;19.70;99.90
21627;DHT22;10975;47.872;12.972;2023-07-13T08:05:47;19.70;99.90
21627;DHT22;10975;47.872;12.972;2023-07-13T08:08:34;19.70;99.90
21627;DHT22;10975;47.872;12.972;2023-07-13T08:11:05;19.70;99.90
21627;DHT22;10975;47.872;12.972;2023-07-13T08:13:52;19.80;99.90
21627;DHT22;10975;47.872;12.972;2023-07-13T08:16:21;19.90;99.90
21627;DHT22;10975;47.872;12.972;2023-07-13T08:18:48;19.90;99.90
21627;DHT22;10975;47.872;12.972;2023-07-13T08:21:15;20.00;99.90
21627;DHT22;10975;47.872;12.972;2023-07-13T08:23:42;20.10;99.90
21627;DHT22;10975;47.872;12.972;2023-07-13T08:26:09;20.20;99.90
21627;DHT22;10975;47.872;12.972;2023-07-13T08:28:35;20.10;99.90
21627;DHT22;10975;47.872;12.972;2023-07-13T08:31:03;20.10;99.90
21627;DHT22;10975;47.872;12.972;2023-07-13T08:33:30;20.20;99.90
21627;DHT22;10975;47.872;12.972;2023-07-13T08:35:57;20.30;99.90
21627;DHT22;10975;47.872;12.972;2023-07-13T08:38:24;20.30;99.90
21627;DHT22;10975;47.872;12.972;2023-07-13T08:40:54;20.40;99.90
21627;DHT22;10975;47.872;12.972;2023-07-13T08:43:26;20.40;99.90
21627;DHT22;10975;47.872;12.972;2023-07-13T08:46:04;20.50;99.90
21627;DHT22;10975;47.872;12.972;2023-07-13T08:48:38;20.50;99.90
21627;DHT22;10975;47.872;12.972;2023-07-13T08:51:13;20.60;99.90
21627;DHT22;10975;47.872;12.972;2023-07-13T08:53:51;20.80;99.90
21627;DHT22;10975;47.872;12.972;2023-07-13T08:56:20;20.90;99.90
21627;DHT22;10975;47.872;12.972;2023-07-13T08:58:48;21.10;99.90
21627;DHT22;10975;47.872;12.972;2023-07-13T09:03:56;21.20;99.90
21627;DHT22;10975;47.872;12.972;2023-07-13T09:06:31;21.50;99.90
21627;DHT22;10975;47.872;12.972;2023-07-13T09:08:59;21.40;99.90
21627;DHT22;10975;47.872;12.972;2023-07-13T09:11:32;21.20;99.90
21627;DHT22;10975;47.872;12.972;2023-07-13T09:14:14;21.20;99.90
21627;DHT22;10975;47.872;12.972;2023-07-13T09:16:45;21.00;99.90
21627;DHT22;10975;47.872;12.972;2023-07-13T09:19:15;20.90;99.90
21627;DHT22;10975;47.872;12.972;2023-07-13T09:21:43;20.80;99.90
21627;DHT22;10975;47.872;12.972;2023-07-13T09:24:31;20.80;99.90
21627;DHT22;10975;47.872;12.972;2023-07-13T09:27:03;20.90;99.90
21627;DHT22;10975;47.872;12.972;2023-07-13T09:29:35;21.00;99.90
21627;DHT22;10975;47.872;12.972;2023-07-13T09:32:04;21.00;99.90
21627;DHT22;10975;47.872;12.972;2023-07-13T09:34:33;21.10;99.90
21627;DHT22;10975;47.872;12.972;2023-07-13T09:37:00;21.20;99.90
21627;DHT22;10975;47.872;12.972;2023-07-13T09:39:31;21.30;99.90
21627;DHT22;10975;47.872;12.972;2023-07-13T09:42:15;21.50;99.90
21627;DHT22;10975;47.872;12.972;2023-07-13T09:44:53;21.60;99.90
21627;DHT22;10975;47.872;12.972;2023-07-13T09:47:27;21.90;99.90
21627;DHT22;10975;47.872;12.972;2023-07-13T09:49:55;22.10;99.90
21627;DHT22;10975;47.872;12.972;2023-07-13T09:52:25;22.20;99.90
21627;DHT22;10975;47.872;12.972;2023-07-13T09:54:53;22.20;99.90
21627;DHT22;10975;47.872;12.972;2023-07-13T09:57:26;22.50;99.90
21627;DHT22;10975;47.872;12.972;2023-07-13T10:00:18;22.50;99.90
21627;DHT22;10975;47.872;12.972;2023-07-13T10:02:46;22.40;99.90
21627;DHT22;10975;47.872;12.972;2023-07-13T10:05:24;22.40;99.90
21627;DHT22;10975;47.872;12.972;2023-07-13T10:07:52;22.30;99.90
21627;DHT22;10975;47.872;12.972;2023-07-13T10:10:22;22.30;99.90
21627;DHT22;10975;47.872;12.972;2023-07-13T10:12:49;22.30;99.90
21627;DHT22;10975;47.872;12.972;2023-07-13T10:15:18;22.40;99.90
21627;DHT22;10975;47.872;12.972;2023-07-13T10:17:51;22.50;99.90
21627;DHT22;10975;47.872;12.972;2023-07-13T10:20:18;22.40;99.90
21627;DHT22;10975;47.872;12.972;2023-07-13T10:22:58;22.40;99.90
21627;DHT22;10975;47.872;12.972;2023-07-13T10:25:27;22.30;99.90
21627;DHT22;10975;47.872;12.972;2023-07-13T10:28:21;22.20;99.90
21627;DHT22;10975;47.872;12.972;2023-07-13T10:30:50;22.20;99.90
21627;DHT22;10975;47.872;12.972;2023-07-13T10:33:19;22.30;99.90
21627;DHT22;10975;47.872;12.972;2023-07-13T10:35:47;22.40;99.90
21627;DHT22;10975;47.872;12.972;2023-07-13T10:38:22;22.40;99.90
21627;DHT22;10975;47.872;12.972;2023-07-13T10:40:57;22.50;99.90
21627;DHT22;10975;47.872;12.972;2023-07-13T10:43:28;22.40;99.90
21627;DHT22;10975;47.872;12.972;2023-07-13T10:45:57;22.30;99.90
21627;DHT22;10975;47.872;12.972;2023-07-13T10:48:25;22.30;99.90
21627;DHT22;10975;47.872;12.972;2023-07-13T10:50:52;22.30;99.90
21627;DHT22;10975;47.872;12.972;2023-07-13T10:53:21;22.40;99.90
21627;DHT22;10975;47.872;12.972;2023-07-13T10:58:18;22.60;99.90
21627;DHT22;10975;47.872;12.972;2023-07-13T11:00:47;22.60;99.90
21627;DHT22;10975;47.872;12.972;2023-07-13T11:03:15;22.60;99.90
21627;DHT22;10975;47.872;12.972;2023-07-13T11:05:43;22.60;99.90
21627;DHT22;10975;47.872;12.972;2023-07-13T11:08:20;22.60;99.90
21627;DHT22;10975;47.872;12.972;2023-07-13T11:10:49;22.70;99.90
21627;DHT22;10975;47.872;12.972;2023-07-13T11:13:35;22.80;99.90
21627;DHT22;10975;47.872;12.972;2023-07-13T11:16:12;22.90;99.90
21627;DHT22;10975;47.872;12.972;2023-07-13T11:18:39;22.80;99.90
21627;DHT22;10975;47.872;12.972;2023-07-13T11:21:16;23.00;99.90
21627;DHT22;10975;47.872;12.972;2023-07-13T11:31:41;23.10;99.90
21627;DHT22;10975;47.872;12.972;2023-07-13T11:34:12;23.00;99.90
21627;DHT22;10975;47.872;12.972;2023-07-13T11:36:42;23.10;99.90
21627;DHT22;10975;47.872;12.972;2023-07-13T11:39:24;23.10;99.90
21627;DHT22;10975;47.872;12.972;2023-07-13T11:41:53;22.90;99.90
21627;DHT22;10975;47.872;12.972;2023-07-13T11:44:24;22.90;99.90
21627;DHT22;10975;47.872;12.972;2023-07-13T11:46:53;22.80;99.90
21627;DHT22;10975;47.872;12.972;2023-07-13T11:49:22;22.70;99.90
21627;DHT22;10975;47.872;12.972;2023-07-13T11:51:50;22.50;99.90
21627;DHT22;10975;47.872;12.972;2023-07-13T11:54:28;22.30;99.90
21627;DHT22;10975;47.872;12.972;2023-07-13T11:56:57;22.00;99.90
21627;DHT22;10975;47.872;12.972;2023-07-13T11:59:27;21.80;99.90
21627;DHT22;10975;47.872;12.972;2023-07-13T12:01:55;21.80;99.90
21627;DHT22;10975;47.872;12.972;2023-07-13T12:04:24;21.70;99.90
21627;DHT22;10975;47.872;12.972;2023-07-13T12:06:58;21.60;99.90
21627;DHT22;10975;47.872;12.972;2023-07-13T12:09:29;21.60;99.90
21627;DHT22;10975;47.872;12.972;2023-07-13T12:11:57;21.50;99.90
21627;DHT22;10975;47.872;12.972;2023-07-13T12:14:33;21.60;99.90
21627;DHT22;10975;47.872;12.972;2023-07-13T12:17:03;21.50;99.90
21627;DHT22;10975;47.872;12.972;2023-07-13T12:19:38;21.50;99.90
21627;DHT22;10975;47.872;12.972;2023-07-13T12:22:08;21.40;99.90
21627;DHT22;10975;47.872;12.972;2023-07-13T12:24:37;21.40;99.90
21627;DHT22;10975;47.872;12.972;2023-07-13T12:27:05;21.40;99.90
21627;DHT22;10975;47.872;12.972;2023-07-13T12:29:32;21.40;99.90
21627;DHT22;10975;47.872;12.972;2023-07-13T12:31:59;21.50;99.90
21627;DHT22;10975;47.872;12.972;2023-07-13T12:35:17;21.60;99.90
21627;DHT22;10975;47.872;12.972;2023-07-13T12:37:33;21.80;99.90
21627;DHT22;10975;47.872;12.972;2023-07-13T12:40:16;22.00;99.90
21627;DHT22;10975;47.872;12.972;2023-07-13T12:45:59;22.00;99.90
21627;DHT22;10975;47.872;12.972;2023-07-13T12:48:26;22.20;99.90
21627;DHT22;10975;47.872;12.972;2023-07-13T12:51:12;22.30;99.90
21627;DHT22;10975;47.872;12.972;2023-07-13T12:53:42;22.40;99.90
21627;DHT22;10975;47.872;12.972;2023-07-13T12:56:14;22.30;99.90
21627;DHT22;10975;47.872;12.972;2023-07-13T12:58:43;22.40;99.90
21627;DHT22;10975;47.872;12.972;2023-07-13T13:01:13;22.60;99.90
21627;DHT22;10975;47.872;12.972;2023-07-13T13:03:44;22.60;99.90
21627;DHT22;10975;47.872;12.972;2023-07-13T13:08:41;22.50;99.90
21627;DHT22;10975;47.872;12.972;2023-07-13T13:11:09;22.40;99.90
21627;DHT22;10975;47.872;12.972;2023-07-13T13:13:36;22.40;99.90
21627;DHT22;10975;47.872;12.972;2023-07-13T13:16:12;22.30;99.90
21627;DHT22;10975;47.872;12.972;2023-07-13T13:18:41;22.30;99.90
21627;DHT22;10975;47.872;12.972;2023-07-13T13:21:09;22.50;99.90
21627;DHT22;10975;47.872;12.972;2023-07-13T13:23:36;22.40;99.90
21627;DHT22;10975;47.872;12.972;2023-07-13T13:26:03;22.30;99.90
21627;DHT22;10975;47.872;12.972;2023-07-13T13:28:32;22.50;99.90
21627;DHT22;10975;47.872;12.972;2023-07-13T13:30:59;22.60;99.90
21627;DHT22;10975;47.872;12.972;2023-07-13T13:33:27;22.70;99.90
21627;DHT22;10975;47.872;12.972;2023-07-13T13:35:54;22.70;99.90
21627;DHT22;10975;47.872;12.972;2023-07-13T13:38:23;22.70;99.90
21627;DHT22;10975;47.872;12.972;2023-07-13T13:40:50;22.50;99.90
21627;DHT22;10975;47.872;12.972;2023-07-13T13:43:17;22.40;99.90
21627;DHT22;10975;47.872;12.972;2023-07-13T13:45:44;22.30;99.90
21627;DHT22;10975;47.872;12.972;2023-07-13T13:48:18;22.40;99.90
21627;DHT22;10975;47.872;12.972;2023-07-13T13:50:46;22.50;99.90
21627;DHT22;10975;47.872;12.972;2023-07-13T13:53:13;22.70;99.90
21627;DHT22;10975;47.872;12.972;2023-07-13T13:55:40;22.80;99.90
21627;DHT22;10975;47.872;12.972;2023-07-13T13:58:09;22.80;99.90
21627;DHT22;10975;47.872;12.972;2023-07-13T14:00:37;23.00;99.90
21627;DHT22;10975;47.872;12.972;2023-07-13T14:03:10;23.20;99.90
21627;DHT22;10975;47.872;12.972;2023-07-13T14:05:40;23.10;99.90
21627;DHT22;10975;47.872;12.972;2023-07-13T14:08:14;23.30;99.90
21627;DHT22;10975;47.872;12.972;2023-07-13T14:10:41;23.10;99.90
21627;DHT22;10975;47.872;12.972;2023-07-13T14:13:16;22.80;99.90
21627;DHT22;10975;47.872;12.972;2023-07-13T14:15:44;22.80;99.90
21627;DHT22;10975;47.872;12.972;2023-07-13T14:18:11;23.10;99.90
21627;DHT22;10975;47.872;12.972;2023-07-13T14:20:38;23.20;99.90
21627;DHT22;10975;47.872;12.972;2023-07-13T14:23:05;23.20;99.90
21627;DHT22;10975;47.872;12.972;2023-07-13T14:25:31;23.40;99.90
21627;DHT22;10975;47.872;12.972;2023-07-13T14:27:58;23.50;99.90
21627;DHT22;10975;47.872;12.972;2023-07-13T14:30:27;23.70;99.90
21627;DHT22;10975;47.872;12.972;2023-07-13T14:32:54;23.70;99.90
21627;DHT22;10975;47.872;12.972;2023-07-13T14:35:21;23.70;99.90
21627;DHT22;10975;47.872;12.972;2023-07-13T14:37:50;23.60;99.90
21627;DHT22;10975;47.872;12.972;2023-07-13T14:40:18;23.50;99.90
21627;DHT22;10975;47.872;12.972;2023-07-13T14:42:45;23.40;99.90
21627;DHT22;10975;47.872;12.972;2023-07-13T14:45:17;23.40;99.90
21627;DHT22;10975;47.872;12.972;2023-07-13T14:47:46;23.40;99.90
21627;DHT22;10975;47.872;12.972;2023-07-13T14:50:14;23.40;99.90
21627;DHT22;10975;47.872;12.972;2023-07-13T14:52:44;23.40;99.90
21627;DHT22;10975;47.872;12.972;2023-07-13T14:55:18;23.40;99.90
21627;DHT22;10975;47.872;12.972;2023-07-13T14:57:45;23.10;99.90
21627;DHT22;10975;47.872;12.972;2023-07-13T15:00:16;23.00;99.90
21627;DHT22;10975;47.872;12.972;2023-07-13T15:02:44;23.20;99.90
21627;DHT22;10975;47.872;12.972;2023-07-13T15:05:14;23.40;99.90
21627;DHT22;10975;47.872;12.972;2023-07-13T15:07:42;23.50;99.90
21627;DHT22;10975;47.872;12.972;2023-07-13T15:10:13;23.40;99.90
21627;DHT22;10975;47.872;12.972;2023-07-13T15:12:40;23.30;99.90
21627;DHT22;10975;47.872;12.972;2023-07-13T15:15:07;23.20;99.90
21627;DHT22;10975;47.872;12.972;2023-07-13T15:17:41;23.00;99.90
21627;DHT22;10975;47.872;12.972;2023-07-13T15:20:17;23.10;99.90
21627;DHT22;10975;47.872;12.972;2023-07-13T15:22:45;23.50;99.90
21627;DHT22;10975;47.872;12.972;2023-07-13T15:25:16;23.70;99.90
21627;DHT22;10975;47.872;12.972;2023-07-13T15:27:44;23.70;99.90
21627;DHT22;10975;47.872;12.972;2023-07-13T15:30:10;23.50;99.90
21627;DHT22;10975;47.872;12.972;2023-07-13T15:32:41;23.40;99.90
21627;DHT22;10975;47.872;12.972;2023-07-13T15:35:12;23.20;99.90
21627;DHT22;10975;47.872;12.972;2023-07-13T15:37:39;23.20;99.90
21627;DHT22;10975;47.872;12.972;2023-07-13T15:40:06;23.30;99.90
21627;DHT22;10975;47.872;12.972;2023-07-13T15:42:33;23.30;99.90
21627;DHT22;10975;47.872;12.972;2023-07-13T15:45:02;23.70;99.90
21627;DHT22;10975;47.872;12.972;2023-07-13T15:47:29;23.90;99.90